URSSURMN

Guest
Details From URSS - Sochi
To URMN - Nalchik
Flight Number -
Tags Generated
Created
Modified
Stats Distance 160 nm / 297 km
Max Altitude 0 ft / 0 m
Waypoints 2
Social Downloads 2
Likes 0
Share VATSIM

Download

Looking for another format? Having issues loading an existing format? Contact us
Advertisement - Login to hide

Notes

Generated

Route

URSS URMN

ID Type Via Altitude Latitude Longitude Leg Dist Tot Dist Heading (true) Name
O URSS APT - 0 ft / 0 m 43.43576˚ 39.94578˚ - 0 nm - Sochi
O URMN APT - 0 ft / 0 m 43.50825˚ 43.62443˚ 160 nm 160 nm 87° / 90° -

Altitude Profile

Advertisement - Login to hide

URSS

Details ICAO URSS (AER)
Name Sochi
Region Russia
Timezone Europe/Moscow (UTC+3.0)
Stats Elevation 89 ft / 27 m (AMSL)
Location 43.444749° 39.947302°
Runways 2
Magnetic Variation 7.001° E

METAR

URSS 202000Z 07001MPS 9999 BKN120 19/15 Q1013 R02/090070 R06/090070 NOSIG RMK R06/34001MPS QFE758

Decode

TAF

TAF URSS 201656Z 2018/2118 06005MPS 9999 SCT030 BECMG 2021/2023 SCT030CB OVC100 TEMPO 2021/2106 VRB07G12MPS -TSRA BECMG 2106/2107 15006G11MPS TEMPO 2106/2112 VRB08G13MPS 3100 -TSRA BKN011 BKN030CB OVC100 BECMG 2112/2113 24005G10MPS TEMPO 2112/2115 VRB07G12MPS -TSRA BKN011 BKN030CB OVC100 BECMG 2115/2117 VRB01MPS BKN011 BKN030CB OVC100 TEMPO 2115/2118 VRB07G12MPS 3100 -TSRA BKN006 BKN030CB OVC100

Decode

Departure Runways

ID Width Length Bearing (true) Bearing (mag) Surface Threshold Offset Overrun Length
02 161 ft / 49 m 7,267 ft / 2,215 m 28.98° 21.98° Concrete 0 ft / 0 m 0 ft / 0 m
06 164 ft / 50 m 9,531 ft / 2,905 m 64.90° 57.90° Concrete 262 ft / 80 m 0 ft / 0 m
20 161 ft / 49 m 7,267 ft / 2,215 m 208.99° 201.99° Concrete 0 ft / 0 m 0 ft / 0 m
24 164 ft / 50 m 9,531 ft / 2,905 m 244.92° 237.92° Concrete 0 ft / 0 m 0 ft / 0 m

URMN

Details ICAO URMN (NAL)
Name NALCHIK
Region Russia
Timezone Europe/Moscow (UTC+3.0)
Stats Elevation 1,462 ft / 446 m (AMSL)
Location 43.512854° 43.636583°
Runways 1
Magnetic Variation 7.221° E

METAR

URMN 202000Z 24002MPS 9999 SCT/// 19/11 Q1013 R24/////// NOSIG RMK QFE723

Decode

TAF

Not found

Destination Runways

ID Width Length Bearing (true) Bearing (mag) Surface Threshold Offset Overrun Length
06 138 ft / 42 m 7,256 ft / 2,212 m 62.40° 55.18° Asphalt 0 ft / 0 m 145 ft / 44 m
24 138 ft / 42 m 7,256 ft / 2,212 m 242.42° 235.20° Asphalt 0 ft / 0 m 160 ft / 49 m

Approach Navaids

Runway Type Ident Frequency Range Bearing (true) Bearing (mag) Slope Elevation
24 Localiser INL 110.50 MHz 18 nm / 33 km 241.33° 234.11° - 1,462 ft / 446 m (AMSL)
24 Glidescope INL 110.50 MHz 10 nm / 19 km 242.41° 235.19° 2.70° 1,462 ft / 446 m (AMSL)

Popular Alternatives